Itapebi, Brazil
Current Conditions -  °F | °C
As of 7:00 AM on Sunday 21 Dec 2014 (Local Time) from SBPS Reporting Station
Scattered Clouds Scattered Clouds  
Wind Chill: 77°   Ceiling: Unl
Heat Index: 78°   Visibility: 6mi
Dew Point: 73°   Wind: 10mph
Humidity: 89%   Direction: 360°N
Pressure: 30"   Gusts: NA
Location:  15.95°S, 39.53°W
Report Text: SBPS 211000Z 36009KT 9999 SCT007 25/23 Q1016
Loading
Personal Weather Stations






























Interactive Weather Map New forecast layout! Learn more

10-Day Weather Forecast

Advertisements
Track Severe Weather on mobile